Time;durP1;ratioP1;P1;durP2;ratioP2;P2;SDS_P1;SDS_P2;PMS_P1;PMS_P2;Temp;Humidity;BMP_temperature;BMP_pressure;BME280_temperature;BME280_humidity;BME280_pressure;Samples;Min_cycle;Max_cycle;Signal;HPM_P1;HPM_P2
2022/03/29 00:00:08;;;;;;;41.67;28.00;;;;;;;;;;5046726;28;20189;-70
2022/03/29 00:02:33;;;;;;;44.17;28.47;;;;;;;;;;5051207;28;20193;-71
2022/03/29 00:05:04;;;;;;;45.50;28.70;;;;;;;;;;5051707;28;20205;-71
2022/03/29 00:07:30;;;;;;;44.70;30.00;;;;;;;;;;5051568;28;20186;-71
2022/03/29 00:09:55;;;;;;;43.40;28.23;;;;;;;;;;5050856;28;20170;-71
2022/03/29 00:12:20;;;;;;;46.23;29.07;;;;;;;;;;5049876;28;20220;-71
2022/03/29 00:14:45;;;;;;;47.67;29.17;;;;;;;;;;5047052;28;20173;-71
2022/03/29 00:17:11;;;;;;;45.90;29.00;;;;;;;;;;5051999;28;20288;-69
2022/03/29 00:19:36;;;;;;;45.10;30.43;;;;;;;;;;5044103;28;20196;-69
2022/03/29 00:22:01;;;;;;;47.87;28.90;;;;;;;;;;5046693;28;20670;-69
2022/03/29 00:24:26;;;;;;;44.43;28.90;;;;;;;;;;5050735;28;20174;-72
2022/03/29 00:26:51;;;;;;;46.33;29.10;;;;;;;;;;5058966;28;20177;-71
2022/03/29 00:29:17;;;;;;;43.37;27.73;;;;;;;;;;5056140;28;20283;-71
2022/03/29 00:31:42;;;;;;;46.50;30.53;;;;;;;;;;5050615;28;20173;-71
2022/03/29 00:34:07;;;;;;;43.80;27.47;;;;;;;;;;5046108;28;20179;-71
2022/03/29 00:36:32;;;;;;;48.80;28.50;;;;;;;;;;5047712;28;20189;-69
2022/03/29 00:38:57;;;;;;;44.70;29.60;;;;;;;;;;5051387;28;20205;-69
2022/03/29 00:41:23;;;;;;;46.67;30.27;;;;;;;;;;5052144;28;20815;-70
2022/03/29 00:43:48;;;;;;;44.43;29.07;;;;;;;;;;5050204;28;20212;-71
2022/03/29 00:46:13;;;;;;;42.33;27.07;;;;;;;;;;5049076;28;20400;-71
2022/03/29 00:48:39;;;;;;;47.03;30.13;;;;;;;;;;5051340;28;20200;-69
2022/03/29 00:51:04;;;;;;;48.13;30.90;;;;;;;;;;5047279;28;20198;-72
2022/03/29 00:53:29;;;;;;;46.43;29.87;;;;;;;;;;5043908;28;20177;-69
2022/03/29 00:55:55;;;;;;;48.03;30.03;;;;;;;;;;5051396;28;20169;-71
2022/03/29 00:58:21;;;;;;;43.93;28.97;;;;;;;;;;5051312;28;20197;-72
2022/03/29 01:00:47;;;;;;;50.67;31.40;;;;;;;;;;5049896;28;20231;-70
2022/03/29 01:03:12;;;;;;;46.53;29.53;;;;;;;;;;5048225;28;20225;-70
2022/03/29 01:05:37;;;;;;;54.23;31.43;;;;;;;;;;5043597;28;20176;-71
2022/03/29 01:08:04;;;;;;;53.27;30.97;;;;;;;;;;5047306;28;20197;-71
2022/03/29 01:10:29;;;;;;;48.57;31.77;;;;;;;;;;5050160;28;20753;-71
2022/03/29 01:12:55;;;;;;;42.77;27.20;;;;;;;;;;5049804;28;20268;-70
2022/03/29 01:15:22;;;;;;;47.43;27.93;;;;;;;;;;5045370;28;20658;-70
2022/03/29 01:17:48;;;;;;;44.40;27.37;;;;;;;;;;5043182;28;20197;-70
2022/03/29 01:20:17;;;;;;;47.53;28.70;;;;;;;;;;5045075;28;20182;-70
2022/03/29 01:22:44;;;;;;;45.67;28.50;;;;;;;;;;5051178;28;20206;-70
2022/03/29 01:25:09;;;;;;;52.47;29.70;;;;;;;;;;5044306;28;20182;-70
2022/03/29 01:27:35;;;;;;;47.97;28.20;;;;;;;;;;5066695;28;20568;-70
2022/03/29 01:30:00;;;;;;;49.37;32.03;;;;;;;;;;5043061;28;20178;-70
2022/03/29 01:32:29;;;;;;;48.57;30.27;;;;;;;;;;5057984;28;20242;-70
2022/03/29 01:34:55;;;;;;;43.20;28.70;;;;;;;;;;5050218;28;20178;-70
2022/03/29 01:37:20;;;;;;;49.80;30.90;;;;;;;;;;5049102;28;20296;-71
2022/03/29 01:39:46;;;;;;;47.97;29.40;;;;;;;;;;5050783;28;20540;-71
2022/03/29 01:42:11;;;;;;;44.20;27.37;;;;;;;;;;5049568;28;20208;-71
2022/03/29 01:44:37;;;;;;;53.47;28.00;;;;;;;;;;5050069;28;20177;-70
2022/03/29 01:47:02;;;;;;;59.77;29.37;;;;;;;;;;5051058;28;20173;-71
2022/03/29 01:49:28;;;;;;;44.90;27.83;;;;;;;;;;5049426;28;20181;-70
2022/03/29 01:51:53;;;;;;;47.47;28.17;;;;;;;;;;5050894;28;20162;-70
2022/03/29 01:54:18;;;;;;;48.80;30.67;;;;;;;;;;5045873;28;20177;-70
2022/03/29 01:56:43;;;;;;;55.60;30.03;;;;;;;;;;5049716;28;20169;-71
2022/03/29 01:59:11;;;;;;;49.23;30.83;;;;;;;;;;5050357;28;20279;-70
2022/03/29 02:01:40;;;;;;;52.77;31.10;;;;;;;;;;5044783;28;20220;-71
2022/03/29 02:04:05;;;;;;;49.10;31.60;;;;;;;;;;5053268;28;20213;-70
2022/03/29 02:06:30;;;;;;;56.07;31.90;;;;;;;;;;5054258;28;20177;-70
2022/03/29 02:08:59;;;;;;;53.50;31.07;;;;;;;;;;5053826;28;20196;-71
2022/03/29 02:11:24;;;;;;;51.43;30.83;;;;;;;;;;5052099;28;21560;-70
2022/03/29 02:13:49;;;;;;;50.07;29.03;;;;;;;;;;5051689;28;20257;-71
2022/03/29 02:16:14;;;;;;;50.53;30.50;;;;;;;;;;5054124;28;20182;-70
2022/03/29 02:18:39;;;;;;;48.37;30.73;;;;;;;;;;5053246;28;20197;-70
2022/03/29 02:21:05;;;;;;;46.03;30.53;;;;;;;;;;5050058;28;20255;-71
2022/03/29 02:23:30;;;;;;;46.23;29.43;;;;;;;;;;5053528;28;20225;-70
2022/03/29 02:25:55;;;;;;;46.60;28.17;;;;;;;;;;5052806;28;20537;-70
2022/03/29 02:28:20;;;;;;;49.80;30.20;;;;;;;;;;5065096;28;20236;-71
2022/03/29 02:30:46;;;;;;;47.63;29.30;;;;;;;;;;5053885;28;20177;-69
2022/03/29 02:33:11;;;;;;;45.53;28.60;;;;;;;;;;5053937;28;20181;-70
2022/03/29 02:35:36;;;;;;;48.17;30.60;;;;;;;;;;5052495;28;20260;-70
2022/03/29 02:38:02;;;;;;;48.70;31.63;;;;;;;;;;5053495;28;20209;-71
2022/03/29 02:40:27;;;;;;;47.50;29.00;;;;;;;;;;5053509;28;20174;-71
2022/03/29 02:42:53;;;;;;;46.60;28.63;;;;;;;;;;5053780;28;20722;-71
2022/03/29 02:45:20;;;;;;;43.43;29.67;;;;;;;;;;5053401;28;20185;-71
2022/03/29 02:47:46;;;;;;;48.40;31.17;;;;;;;;;;5053664;28;20667;-71
2022/03/29 02:50:12;;;;;;;47.77;30.37;;;;;;;;;;5049935;28;20174;-71
2022/03/29 02:52:44;;;;;;;41.53;27.37;;;;;;;;;;5052307;28;20192;-72
2022/03/29 02:55:10;;;;;;;46.50;29.37;;;;;;;;;;5049222;28;20646;-72
2022/03/29 02:57:35;;;;;;;45.90;28.67;;;;;;;;;;5053121;28;20202;-72
2022/03/29 03:00:01;;;;;;;44.23;28.47;;;;;;;;;;5049842;28;20192;-72
2022/03/29 03:02:26;;;;;;;45.87;28.60;;;;;;;;;;5050475;28;20197;-72
2022/03/29 03:04:51;;;;;;;51.57;31.37;;;;;;;;;;5053060;28;20169;-70
2022/03/29 03:07:17;;;;;;;52.53;30.50;;;;;;;;;;5051701;28;20189;-72
2022/03/29 03:09:42;;;;;;;50.80;31.00;;;;;;;;;;5052368;28;20165;-71
2022/03/29 03:12:07;;;;;;;47.07;28.70;;;;;;;;;;5053125;28;20184;-72
2022/03/29 03:14:32;;;;;;;44.10;29.13;;;;;;;;;;5052685;28;20180;-72
2022/03/29 03:16:58;;;;;;;46.60;28.93;;;;;;;;;;5051795;28;20579;-71
2022/03/29 03:19:23;;;;;;;47.17;29.53;;;;;;;;;;5047929;28;20265;-70
2022/03/29 03:21:48;;;;;;;45.30;28.90;;;;;;;;;;5046158;28;20228;-70
2022/03/29 03:24:13;;;;;;;44.27;28.17;;;;;;;;;;5055433;28;20196;-71
2022/03/29 03:26:38;;;;;;;41.20;26.87;;;;;;;;;;5059363;28;20257;-71
2022/03/29 03:29:04;;;;;;;48.90;28.40;;;;;;;;;;5053956;28;20276;-71
2022/03/29 03:31:29;;;;;;;46.33;28.70;;;;;;;;;;5052886;28;20646;-70
2022/03/29 03:33:54;;;;;;;47.83;28.50;;;;;;;;;;5050451;28;20635;-71
2022/03/29 03:36:19;;;;;;;43.73;28.73;;;;;;;;;;5055543;28;20189;-71
2022/03/29 03:38:44;;;;;;;47.30;28.07;;;;;;;;;;5047955;28;20216;-71
2022/03/29 03:41:09;;;;;;;43.73;26.93;;;;;;;;;;5045467;28;20202;-71
2022/03/29 03:43:35;;;;;;;46.80;28.07;;;;;;;;;;5049861;28;20202;-70
2022/03/29 03:46:00;;;;;;;45.77;27.97;;;;;;;;;;5048615;28;20173;-70
2022/03/29 03:48:25;;;;;;;48.83;31.50;;;;;;;;;;5050280;28;20202;-71
2022/03/29 03:50:51;;;;;;;50.13;28.67;;;;;;;;;;5052765;28;20170;-72
2022/03/29 03:53:16;;;;;;;49.90;29.10;;;;;;;;;;5052884;28;20265;-71
2022/03/29 03:55:41;;;;;;;48.10;29.67;;;;;;;;;;5052067;28;20166;-71
2022/03/29 03:58:06;;;;;;;46.63;28.27;;;;;;;;;;5045654;28;20208;-69
2022/03/29 04:00:32;;;;;;;45.43;28.87;;;;;;;;;;5049260;28;20177;-70
2022/03/29 04:02:57;;;;;;;50.83;29.17;;;;;;;;;;5045316;28;20201;-71
2022/03/29 04:05:22;;;;;;;54.43;28.27;;;;;;;;;;5050947;28;20612;-71
2022/03/29 04:07:47;;;;;;;51.67;28.93;;;;;;;;;;5050756;28;20193;-71
2022/03/29 04:10:13;;;;;;;47.53;29.03;;;;;;;;;;5052382;28;20265;-70
2022/03/29 04:12:38;;;;;;;47.23;29.30;;;;;;;;;;5052373;28;20177;-71
2022/03/29 04:15:04;;;;;;;61.87;28.83;;;;;;;;;;5051779;28;20261;-71
2022/03/29 04:17:29;;;;;;;54.70;30.00;;;;;;;;;;5050325;28;20562;-72
2022/03/29 04:19:55;;;;;;;59.80;29.37;;;;;;;;;;5051572;28;20174;-71
2022/03/29 04:22:20;;;;;;;53.87;29.97;;;;;;;;;;5036468;28;20566;-70
2022/03/29 04:24:45;;;;;;;48.17;28.73;;;;;;;;;;5055831;28;20174;-71
2022/03/29 04:27:10;;;;;;;60.97;30.37;;;;;;;;;;5036028;28;20199;-71
2022/03/29 04:29:36;;;;;;;48.83;27.30;;;;;;;;;;5054997;28;20603;-71
2022/03/29 04:32:01;;;;;;;45.40;28.50;;;;;;;;;;5049299;28;20178;-71
2022/03/29 04:34:26;;;;;;;52.43;26.90;;;;;;;;;;5049351;28;20193;-70
2022/03/29 04:36:51;;;;;;;47.83;28.70;;;;;;;;;;5046078;28;20174;-72
2022/03/29 04:39:16;;;;;;;47.70;27.23;;;;;;;;;;5051086;28;20545;-72
2022/03/29 04:41:42;;;;;;;47.90;27.83;;;;;;;;;;5051480;28;20196;-70
2022/03/29 04:44:07;;;;;;;44.10;27.83;;;;;;;;;;5050207;28;20205;-69
2022/03/29 04:46:32;;;;;;;56.20;29.17;;;;;;;;;;5043788;28;20173;-72
2022/03/29 04:48:57;;;;;;;42.10;26.77;;;;;;;;;;5051595;28;20622;-69
2022/03/29 04:51:22;;;;;;;43.87;26.83;;;;;;;;;;5050556;28;20174;-72
2022/03/29 04:53:48;;;;;;;49.03;29.77;;;;;;;;;;5049219;28;20170;-71
2022/03/29 04:56:13;;;;;;;44.80;26.70;;;;;;;;;;5051111;28;20184;-71
2022/03/29 04:58:39;;;;;;;41.27;24.83;;;;;;;;;;5051111;28;20267;-72
2022/03/29 05:01:04;;;;;;;44.43;26.23;;;;;;;;;;5040260;28;20652;-72
2022/03/29 05:03:31;;;;;;;42.40;25.93;;;;;;;;;;5053789;28;20567;-71
2022/03/29 05:05:56;;;;;;;38.50;24.93;;;;;;;;;;5050264;28;20178;-72
2022/03/29 05:08:21;;;;;;;40.70;24.77;;;;;;;;;;5050832;28;20196;-72
2022/03/29 05:10:47;;;;;;;42.27;24.70;;;;;;;;;;5052339;28;20713;-72
2022/03/29 05:13:14;;;;;;;38.63;24.67;;;;;;;;;;5051791;28;20609;-70
2022/03/29 05:15:39;;;;;;;36.40;23.67;;;;;;;;;;5051905;28;20177;-72
2022/03/29 05:18:04;;;;;;;39.50;26.33;;;;;;;;;;5044149;28;20208;-71
2022/03/29 05:20:29;;;;;;;42.77;26.37;;;;;;;;;;5051776;28;20189;-69
2022/03/29 05:22:55;;;;;;;38.07;24.37;;;;;;;;;;5039931;28;20221;-71
2022/03/29 05:25:21;;;;;;;38.97;24.03;;;;;;;;;;5048737;28;20219;-70
2022/03/29 05:27:46;;;;;;;45.83;25.80;;;;;;;;;;5055568;28;20273;-71
2022/03/29 05:30:12;;;;;;;47.73;25.43;;;;;;;;;;5054777;28;20390;-70
2022/03/29 05:32:38;;;;;;;45.73;24.83;;;;;;;;;;5046297;28;20601;-71
2022/03/29 05:35:04;;;;;;;41.13;24.33;;;;;;;;;;5050639;28;20177;-71
2022/03/29 05:37:29;;;;;;;39.67;24.63;;;;;;;;;;5048936;28;20212;-70
2022/03/29 05:39:54;;;;;;;52.50;25.70;;;;;;;;;;5062571;28;20261;-71
2022/03/29 05:42:20;;;;;;;53.37;25.80;;;;;;;;;;5046689;28;20245;-71
2022/03/29 05:44:46;;;;;;;48.33;25.47;;;;;;;;;;5049148;28;20198;-71
2022/03/29 05:49:57;;;;;;;47.77;25.37;;;;;;;;;;5054809;28;20670;-70
2022/03/29 05:52:22;;;;;;;46.53;25.93;;;;;;;;;;5054174;28;20646;-70
2022/03/29 05:54:48;;;;;;;40.77;24.93;;;;;;;;;;5054314;28;20188;-71
2022/03/29 05:57:13;;;;;;;39.93;23.90;;;;;;;;;;5054484;28;20193;-70
2022/03/29 05:59:39;;;;;;;43.83;25.30;;;;;;;;;;5050027;28;20202;-70
2022/03/29 06:02:04;;;;;;;59.00;26.00;;;;;;;;;;5039383;28;20621;-71
2022/03/29 06:04:33;;;;;;;42.77;24.87;;;;;;;;;;5043704;28;20256;-71
2022/03/29 06:06:58;;;;;;;40.60;23.63;;;;;;;;;;5048305;28;20608;-70
2022/03/29 06:09:24;;;;;;;43.60;25.40;;;;;;;;;;5053156;28;20177;-72
2022/03/29 06:11:49;;;;;;;45.70;24.53;;;;;;;;;;5049920;28;20188;-70
2022/03/29 06:14:14;;;;;;;45.47;24.23;;;;;;;;;;5053768;28;20219;-69
2022/03/29 06:16:40;;;;;;;42.03;23.47;;;;;;;;;;5052685;28;20233;-71
2022/03/29 06:19:05;;;;;;;43.73;25.80;;;;;;;;;;5053516;28;20201;-71
2022/03/29 06:21:30;;;;;;;41.60;23.93;;;;;;;;;;5050192;28;20205;-71
2022/03/29 06:23:55;;;;;;;42.37;25.17;;;;;;;;;;5039029;28;20206;-70
2022/03/29 06:26:21;;;;;;;34.57;22.03;;;;;;;;;;5060334;28;20272;-71
2022/03/29 06:28:46;;;;;;;42.80;25.43;;;;;;;;;;5047232;28;20197;-70
2022/03/29 06:31:11;;;;;;;37.03;23.67;;;;;;;;;;5051749;28;20197;-70
2022/03/29 06:33:36;;;;;;;38.73;24.00;;;;;;;;;;5052636;28;20170;-71
2022/03/29 06:36:01;;;;;;;37.23;21.53;;;;;;;;;;5051829;28;20662;-70
2022/03/29 06:38:31;;;;;;;35.83;22.57;;;;;;;;;;5053416;28;20288;-70
2022/03/29 06:40:57;;;;;;;35.60;21.93;;;;;;;;;;5047119;28;20576;-71
2022/03/29 06:43:22;;;;;;;39.70;23.80;;;;;;;;;;5042112;28;20202;-71
2022/03/29 06:45:48;;;;;;;40.97;24.57;;;;;;;;;;5055887;28;20713;-72
2022/03/29 06:48:13;;;;;;;41.53;25.33;;;;;;;;;;5045876;28;20202;-71
2022/03/29 06:50:38;;;;;;;45.37;24.87;;;;;;;;;;5050976;28;20193;-70
2022/03/29 06:53:04;;;;;;;41.47;26.10;;;;;;;;;;5050871;28;20178;-70
2022/03/29 06:55:29;;;;;;;36.20;22.57;;;;;;;;;;5053279;28;20533;-70
2022/03/29 06:57:55;;;;;;;34.93;23.53;;;;;;;;;;5043462;28;20290;-71
2022/03/29 07:00:20;;;;;;;41.33;22.53;;;;;;;;;;5051620;28;20189;-70
2022/03/29 07:02:45;;;;;;;38.13;22.40;;;;;;;;;;5050672;28;20241;-71
2022/03/29 07:05:12;;;;;;;37.27;23.77;;;;;;;;;;5053089;28;20224;-70
2022/03/29 07:07:37;;;;;;;39.30;22.47;;;;;;;;;;5045581;28;20206;-71
2022/03/29 07:12:48;;;;;;;40.73;24.23;;;;;;;;;;5050851;28;20257;-72
2022/03/29 07:15:13;;;;;;;36.60;23.47;;;;;;;;;;5038422;28;20174;-71
2022/03/29 07:17:38;;;;;;;39.47;24.43;;;;;;;;;;5046475;28;20212;-71
2022/03/29 07:20:03;;;;;;;35.87;22.50;;;;;;;;;;5050384;28;20190;-71
2022/03/29 07:22:29;;;;;;;38.30;24.10;;;;;;;;;;5047767;28;20214;-71
2022/03/29 07:24:55;;;;;;;38.33;23.37;;;;;;;;;;5040287;28;20728;-69
2022/03/29 07:27:20;;;;;;;33.90;22.73;;;;;;;;;;5050162;28;20194;-69
2022/03/29 07:29:46;;;;;;;36.33;23.90;;;;;;;;;;5050046;28;20189;-69
2022/03/29 07:32:11;;;;;;;35.47;21.80;;;;;;;;;;5051197;28;20232;-70
2022/03/29 07:34:36;;;;;;;34.40;21.97;;;;;;;;;;5049309;28;20185;-70
2022/03/29 07:37:02;;;;;;;37.90;23.60;;;;;;;;;;5047104;28;20198;-71
2022/03/29 07:39:27;;;;;;;38.57;24.77;;;;;;;;;;5050352;28;20378;-70
2022/03/29 07:41:54;;;;;;;38.00;23.43;;;;;;;;;;5050993;28;20648;-70
2022/03/29 07:44:20;;;;;;;36.20;21.80;;;;;;;;;;5046115;28;20201;-70
2022/03/29 07:46:45;;;;;;;46.17;27.57;;;;;;;;;;5049733;28;20208;-70
2022/03/29 07:49:10;;;;;;;38.60;24.37;;;;;;;;;;5049235;28;20174;-70
2022/03/29 07:51:35;;;;;;;42.10;24.90;;;;;;;;;;5050175;28;20599;-70
2022/03/29 07:54:03;;;;;;;41.27;26.60;;;;;;;;;;5045379;28;20208;-70
2022/03/29 07:56:28;;;;;;;39.07;25.17;;;;;;;;;;5046695;28;20222;-71
2022/03/29 07:58:56;;;;;;;36.63;23.97;;;;;;;;;;5045720;28;20206;-71
2022/03/29 08:01:21;;;;;;;38.73;23.93;;;;;;;;;;5048044;28;20211;-71
2022/03/29 08:03:46;;;;;;;31.23;21.93;;;;;;;;;;5050843;28;20571;-70
2022/03/29 08:06:12;;;;;;;32.20;22.23;;;;;;;;;;5051599;28;20234;-71
2022/03/29 08:08:37;;;;;;;31.27;21.13;;;;;;;;;;5049296;28;20756;-72
2022/03/29 08:11:04;;;;;;;34.07;22.33;;;;;;;;;;5043786;28;20181;-70
2022/03/29 08:13:29;;;;;;;34.27;22.33;;;;;;;;;;5049843;28;20235;-70
2022/03/29 08:15:55;;;;;;;33.37;21.23;;;;;;;;;;5050448;28;20678;-70
2022/03/29 08:18:21;;;;;;;37.13;23.40;;;;;;;;;;5049949;28;20201;-70
2022/03/29 08:20:47;;;;;;;34.10;22.13;;;;;;;;;;5045376;28;20232;-70
2022/03/29 08:23:12;;;;;;;35.40;22.27;;;;;;;;;;5046843;28;20547;-70
2022/03/29 08:25:39;;;;;;;33.37;21.37;;;;;;;;;;5048464;28;20177;-70
2022/03/29 08:28:05;;;;;;;36.17;22.60;;;;;;;;;;5048901;28;20196;-70
2022/03/29 08:30:30;;;;;;;36.90;24.03;;;;;;;;;;5048647;28;20173;-70
2022/03/29 08:32:57;;;;;;;33.13;22.57;;;;;;;;;;5044840;28;20678;-70
2022/03/29 08:35:22;;;;;;;33.73;22.17;;;;;;;;;;5048053;28;20261;-70
2022/03/29 08:37:47;;;;;;;35.80;22.30;;;;;;;;;;5044568;28;20309;-70
2022/03/29 08:40:14;;;;;;;32.40;21.53;;;;;;;;;;5050464;28;20182;-70
2022/03/29 08:42:42;;;;;;;27.13;19.73;;;;;;;;;;5047186;28;20202;-70
2022/03/29 08:45:07;;;;;;;27.83;19.53;;;;;;;;;;5050452;28;20503;-70
2022/03/29 08:47:33;;;;;;;27.00;19.17;;;;;;;;;;5049110;28;20204;-70
2022/03/29 08:49:59;;;;;;;30.67;21.40;;;;;;;;;;5046882;28;20178;-70
2022/03/29 08:52:24;;;;;;;29.53;20.23;;;;;;;;;;5048629;28;20212;-70
2022/03/29 08:54:49;;;;;;;33.80;20.83;;;;;;;;;;5045779;28;20212;-71
2022/03/29 08:57:15;;;;;;;30.53;20.50;;;;;;;;;;5043700;28;20198;-71
2022/03/29 08:59:42;;;;;;;29.57;19.97;;;;;;;;;;5043076;28;20229;-71
2022/03/29 09:02:15;;;;;;;31.87;20.97;;;;;;;;;;5047454;28;21036;-71
2022/03/29 09:04:41;;;;;;;30.90;21.00;;;;;;;;;;5047744;28;20591;-72
2022/03/29 09:07:06;;;;;;;28.87;19.50;;;;;;;;;;5043697;28;20247;-71
2022/03/29 09:09:38;;;;;;;29.37;21.87;;;;;;;;;;5050216;28;20169;-71
2022/03/29 09:12:16;;;;;;;30.53;20.27;;;;;;;;;;5052893;28;20184;-71
2022/03/29 09:14:54;;;;;;;31.47;20.70;;;;;;;;;;5040519;28;20177;-71
2022/03/29 09:17:31;;;;;;;30.40;20.30;;;;;;;;;;5040579;28;20194;-71
2022/03/29 09:19:56;;;;;;;29.77;21.70;;;;;;;;;;5046676;28;20219;-70
2022/03/29 09:22:42;;;;;;;31.37;20.33;;;;;;;;;;5054038;28;20198;-70
2022/03/29 09:25:08;;;;;;;28.03;20.53;;;;;;;;;;5044370;28;20260;-69
2022/03/29 09:27:53;;;;;;;29.00;20.77;;;;;;;;;;5045890;28;20198;-70
2022/03/29 09:30:19;;;;;;;29.40;21.10;;;;;;;;;;5043322;28;20178;-70
2022/03/29 09:32:56;;;;;;;31.50;21.33;;;;;;;;;;5045409;28;20182;-71
2022/03/29 09:35:22;;;;;;;26.87;19.80;;;;;;;;;;5046477;28;20953;-71
2022/03/29 09:37:48;;;;;;;30.10;21.30;;;;;;;;;;5048620;28;20216;-71
2022/03/29 09:40:14;;;;;;;31.60;20.80;;;;;;;;;;5048407;28;20560;-71
2022/03/29 09:42:40;;;;;;;28.97;19.77;;;;;;;;;;5042576;28;20209;-71
2022/03/29 09:45:06;;;;;;;30.40;21.13;;;;;;;;;;5046317;28;20178;-71
2022/03/29 09:47:31;;;;;;;31.37;21.83;;;;;;;;;;5049029;28;20273;-71
2022/03/29 09:49:58;;;;;;;29.40;21.90;;;;;;;;;;5044620;28;20650;-71
2022/03/29 09:52:27;;;;;;;30.50;21.50;;;;;;;;;;5048180;28;20175;-71
2022/03/29 09:55:05;;;;;;;32.03;21.33;;;;;;;;;;5048181;28;20209;-71
2022/03/29 09:57:37;;;;;;;31.80;23.93;;;;;;;;;;5048943;28;20189;-71
2022/03/29 10:00:03;;;;;;;34.80;22.70;;;;;;;;;;5047440;28;20189;-71
2022/03/29 10:02:36;;;;;;;28.30;21.53;;;;;;;;;;5046808;28;20247;-71
2022/03/29 10:05:02;;;;;;;32.17;21.80;;;;;;;;;;5047758;28;20678;-71
2022/03/29 10:07:28;;;;;;;30.80;22.80;;;;;;;;;;5048475;28;20189;-70
2022/03/29 10:09:54;;;;;;;29.27;22.30;;;;;;;;;;5045264;28;20174;-70
2022/03/29 10:12:22;;;;;;;29.80;21.53;;;;;;;;;;5043670;28;20184;-70
2022/03/29 10:14:47;;;;;;;31.00;21.37;;;;;;;;;;5043783;28;20194;-71
2022/03/29 10:17:13;;;;;;;32.53;22.53;;;;;;;;;;5046789;28;20643;-71
2022/03/29 10:19:38;;;;;;;32.50;22.37;;;;;;;;;;5048981;28;20170;-69
2022/03/29 10:22:04;;;;;;;34.40;22.87;;;;;;;;;;5045989;28;20260;-71
2022/03/29 10:24:30;;;;;;;32.00;22.80;;;;;;;;;;5053745;28;20208;-71
2022/03/29 10:26:56;;;;;;;29.20;21.90;;;;;;;;;;5048093;28;20610;-72
2022/03/29 10:29:22;;;;;;;29.03;21.57;;;;;;;;;;5050952;28;20200;-71
2022/03/29 10:31:54;;;;;;;29.00;22.13;;;;;;;;;;5049068;28;20640;-70
2022/03/29 10:34:25;;;;;;;31.33;22.27;;;;;;;;;;5051266;28;20685;-70
2022/03/29 10:37:09;;;;;;;38.10;23.97;;;;;;;;;;5049775;28;20180;-70
2022/03/29 10:39:45;;;;;;;30.20;22.40;;;;;;;;;;5043946;28;20187;-69
2022/03/29 10:42:30;;;;;;;31.73;21.97;;;;;;;;;;5049122;28;20494;-69
2022/03/29 10:45:06;;;;;;;33.23;22.73;;;;;;;;;;5048086;28;20182;-69
2022/03/29 10:47:32;;;;;;;33.23;22.90;;;;;;;;;;5047415;28;20197;-71
2022/03/29 10:49:57;;;;;;;35.30;23.60;;;;;;;;;;5049911;28;20178;-70
2022/03/29 10:52:22;;;;;;;28.90;22.00;;;;;;;;;;5053409;28;20231;-71
2022/03/29 10:54:49;;;;;;;41.03;24.47;;;;;;;;;;5051289;28;20175;-69
2022/03/29 10:57:31;;;;;;;32.47;23.83;;;;;;;;;;5049122;28;20881;-70
2022/03/29 11:00:12;;;;;;;29.17;22.57;;;;;;;;;;5048836;28;20209;-72
2022/03/29 11:02:38;;;;;;;34.33;23.23;;;;;;;;;;5048096;28;20221;-71
2022/03/29 11:05:10;;;;;;;28.60;21.57;;;;;;;;;;5053057;28;20655;-71
2022/03/29 11:07:35;;;;;;;31.50;21.17;;;;;;;;;;5044547;28;20200;-71
2022/03/29 11:10:15;;;;;;;28.33;20.43;;;;;;;;;;5046358;28;20264;-69
2022/03/29 11:12:43;;;;;;;33.83;22.13;;;;;;;;;;5040375;28;20810;-69
2022/03/29 11:15:23;;;;;;;31.17;21.53;;;;;;;;;;5048194;28;20182;-69
2022/03/29 11:17:49;;;;;;;31.87;21.00;;;;;;;;;;5047075;28;20201;-69
2022/03/29 11:20:26;;;;;;;28.67;22.15;;;;;;;;;;5048396;28;20181;-70
2022/03/29 11:22:52;;;;;;;27.08;20.05;;;;;;;;;;5046861;28;20579;-69
2022/03/29 11:25:20;;;;;;;25.25;19.98;;;;;;;;;;5046606;28;20186;-72
2022/03/29 11:27:45;;;;;;;26.83;19.92;;;;;;;;;;5052477;28;20186;-70
2022/03/29 11:30:12;;;;;;;26.05;20.10;;;;;;;;;;5051220;28;20802;-69
2022/03/29 11:32:40;;;;;;;23.23;18.35;;;;;;;;;;5045846;28;20180;-69
2022/03/29 11:35:07;;;;;;;23.00;18.50;;;;;;;;;;5047968;28;20189;-69
2022/03/29 11:37:40;;;;;;;22.63;17.30;;;;;;;;;;5037413;28;20209;-69
2022/03/29 11:40:07;;;;;;;24.50;18.13;;;;;;;;;;5025360;28;20969;-69
2022/03/29 11:42:51;;;;;;;24.02;19.23;;;;;;;;;;5029340;28;20369;-69
2022/03/29 11:45:17;;;;;;;26.85;19.45;;;;;;;;;;5040377;28;20604;-69
2022/03/29 11:47:56;;;;;;;23.98;17.95;;;;;;;;;;5044881;28;20688;-70
2022/03/29 11:50:35;;;;;;;22.42;18.15;;;;;;;;;;5050235;28;20174;-71
2022/03/29 11:53:00;;;;;;;21.58;16.73;;;;;;;;;;5049175;28;20264;-68
2022/03/29 11:55:25;;;;;;;23.75;19.00;;;;;;;;;;5048426;28;20316;-68
2022/03/29 11:57:51;;;;;;;23.33;18.52;;;;;;;;;;5047474;28;20298;-68
2022/03/29 12:00:20;;;;;;;24.38;18.63;;;;;;;;;;5045657;28;20182;-69
2022/03/29 12:02:45;;;;;;;23.65;18.88;;;;;;;;;;5050157;28;20212;-69
2022/03/29 12:05:19;;;;;;;24.50;19.20;;;;;;;;;;5047836;28;20747;-70
2022/03/29 12:07:45;;;;;;;22.45;18.15;;;;;;;;;;5048150;28;20546;-69
2022/03/29 12:10:11;;;;;;;23.20;18.85;;;;;;;;;;5049657;28;20180;-69
2022/03/29 12:12:36;;;;;;;22.38;18.58;;;;;;;;;;5047935;28;20174;-69
2022/03/29 12:15:06;;;;;;;25.98;19.23;;;;;;;;;;5046678;28;20185;-71
2022/03/29 12:17:31;;;;;;;24.10;19.13;;;;;;;;;;5050331;28;20312;-70
2022/03/29 12:19:57;;;;;;;22.38;18.30;;;;;;;;;;5051407;28;20208;-69
2022/03/29 12:22:25;;;;;;;22.50;18.00;;;;;;;;;;5050203;28;20558;-68
2022/03/29 12:24:55;;;;;;;23.30;18.70;;;;;;;;;;5052320;28;20173;-68
2022/03/29 12:27:20;;;;;;;25.35;19.30;;;;;;;;;;5048441;28;20194;-69
2022/03/29 12:29:49;;;;;;;22.20;18.67;;;;;;;;;;5043894;28;20651;-69
2022/03/29 12:32:15;;;;;;;23.05;18.60;;;;;;;;;;5047023;28;20177;-69
2022/03/29 12:34:41;;;;;;;21.20;18.00;;;;;;;;;;5047943;28;20184;-69
2022/03/29 12:37:12;;;;;;;22.17;17.83;;;;;;;;;;5045758;28;20205;-69
2022/03/29 12:39:39;;;;;;;22.27;18.63;;;;;;;;;;5046086;28;20180;-69
2022/03/29 12:42:08;;;;;;;25.10;18.08;;;;;;;;;;5046334;28;20178;-69
2022/03/29 12:44:38;;;;;;;27.65;18.90;;;;;;;;;;5046502;28;20205;-69
2022/03/29 12:47:04;;;;;;;21.85;17.83;;;;;;;;;;5043960;28;20173;-69
2022/03/29 12:49:30;;;;;;;25.17;18.25;;;;;;;;;;5041296;28;20181;-69
2022/03/29 12:51:57;;;;;;;23.45;17.90;;;;;;;;;;5044620;28;20177;-69
2022/03/29 12:54:32;;;;;;;26.27;18.98;;;;;;;;;;5041370;28;20265;-69
2022/03/29 12:56:58;;;;;;;23.75;17.92;;;;;;;;;;5046448;28;20192;-70
2022/03/29 12:59:27;;;;;;;22.00;18.65;;;;;;;;;;5043437;28;20173;-70
2022/03/29 13:01:58;;;;;;;23.08;18.02;;;;;;;;;;5050769;28;20182;-69
2022/03/29 13:04:33;;;;;;;23.65;18.15;;;;;;;;;;5046799;28;20728;-69
2022/03/29 13:06:59;;;;;;;22.55;17.92;;;;;;;;;;5048905;28;20174;-69
2022/03/29 13:09:24;;;;;;;23.35;18.13;;;;;;;;;;5048012;28;20603;-68
2022/03/29 13:12:07;;;;;;;22.30;17.37;;;;;;;;;;5048280;28;20513;-69
2022/03/29 13:14:36;;;;;;;26.02;18.55;;;;;;;;;;5046981;28;20643;-70
2022/03/29 13:17:01;;;;;;;23.13;18.00;;;;;;;;;;5048272;28;20281;-70
2022/03/29 13:19:28;;;;;;;22.95;17.05;;;;;;;;;;5050197;28;20249;-70
2022/03/29 13:22:04;;;;;;;22.90;17.08;;;;;;;;;;5048026;28;20181;-70
2022/03/29 13:24:36;;;;;;;22.52;17.95;;;;;;;;;;5050025;28;20208;-69
2022/03/29 13:27:01;;;;;;;23.05;17.77;;;;;;;;;;5049427;28;20181;-70
2022/03/29 13:29:27;;;;;;;20.85;18.23;;;;;;;;;;5050399;28;20223;-69
2022/03/29 13:31:53;;;;;;;23.67;16.40;;;;;;;;;;5048359;28;20261;-69
2022/03/29 13:34:18;;;;;;;19.50;16.08;;;;;;;;;;5040531;28;20293;-70
2022/03/29 13:36:44;;;;;;;22.35;16.48;;;;;;;;;;5050369;28;20181;-69
2022/03/29 13:39:12;;;;;;;20.63;16.00;;;;;;;;;;5045996;28;20220;-70
2022/03/29 13:41:37;;;;;;;23.48;17.23;;;;;;;;;;5044584;28;20232;-70
2022/03/29 13:44:02;;;;;;;23.63;15.45;;;;;;;;;;5043168;28;20614;-70
2022/03/29 13:46:27;;;;;;;21.00;15.18;;;;;;;;;;5032562;28;20189;-69
2022/03/29 13:48:52;;;;;;;16.20;14.50;;;;;;;;;;5032310;28;20206;-69
2022/03/29 13:51:18;;;;;;;18.73;16.03;;;;;;;;;;5050319;28;20418;-69
2022/03/29 13:53:43;;;;;;;19.55;15.45;;;;;;;;;;5043658;28;20765;-70
2022/03/29 13:56:09;;;;;;;17.08;14.88;;;;;;;;;;5046059;28;20178;-70
2022/03/29 13:58:35;;;;;;;19.70;16.20;;;;;;;;;;5044783;28;20221;-69
2022/03/29 14:01:01;;;;;;;18.55;15.48;;;;;;;;;;5051339;28;20214;-70
2022/03/29 14:03:26;;;;;;;19.23;14.90;;;;;;;;;;5045744;28;20201;-69
2022/03/29 14:05:52;;;;;;;19.42;15.77;;;;;;;;;;5048050;28;20177;-70
2022/03/29 14:08:17;;;;;;;21.95;15.45;;;;;;;;;;5048117;28;20245;-69
2022/03/29 14:10:42;;;;;;;20.17;15.50;;;;;;;;;;5050248;28;20173;-70
2022/03/29 14:13:08;;;;;;;19.88;15.50;;;;;;;;;;5047806;28;20623;-69
2022/03/29 14:15:35;;;;;;;20.58;16.08;;;;;;;;;;5046845;28;20260;-69
2022/03/29 14:18:07;;;;;;;16.95;13.98;;;;;;;;;;5053673;28;20193;-69